sensor_id;sensor_type;location;lat;lon;timestamp;pressure;altitude;pressure_sealevel;temperature;humidity
6668;BME280;3370;47.712;9.082;2023-07-13T00:01:56;97062.50;;;18.29;100.00
6668;BME280;3370;47.712;9.082;2023-07-13T00:04:24;97070.78;;;18.23;100.00
6668;BME280;3370;47.712;9.082;2023-07-13T00:06:53;97068.63;;;18.16;100.00
6668;BME280;3370;47.712;9.082;2023-07-13T00:09:19;97069.91;;;18.11;100.00
6668;BME280;3370;47.712;9.082;2023-07-13T00:11:49;97069.47;;;18.06;100.00
6668;BME280;3370;47.712;9.082;2023-07-13T00:14:15;97066.13;;;18.04;100.00
6668;BME280;3370;47.712;9.082;2023-07-13T00:16:41;97062.09;;;17.99;100.00
6668;BME280;3370;47.712;9.082;2023-07-13T00:19:12;97066.25;;;18.02;100.00
6668;BME280;3370;47.712;9.082;2023-07-13T00:21:40;97070.25;;;17.95;100.00
6668;BME280;3370;47.712;9.082;2023-07-13T00:24:14;97064.59;;;18.01;100.00
6668;BME280;3370;47.712;9.082;2023-07-13T00:26:41;97063.88;;;17.99;100.00
6668;BME280;3370;47.712;9.082;2023-07-13T00:29:10;97058.78;;;17.97;100.00
6668;BME280;3370;47.712;9.082;2023-07-13T00:31:36;97056.75;;;17.90;100.00
6668;BME280;3370;47.712;9.082;2023-07-13T00:34:02;97059.00;;;17.94;100.00
6668;BME280;3370;47.712;9.082;2023-07-13T00:36:30;97065.50;;;17.89;100.00
6668;BME280;3370;47.712;9.082;2023-07-13T00:38:56;97069.53;;;17.93;100.00
6668;BME280;3370;47.712;9.082;2023-07-13T00:41:22;97065.28;;;17.92;100.00
6668;BME280;3370;47.712;9.082;2023-07-13T00:43:48;97058.19;;;17.94;100.00
6668;BME280;3370;47.712;9.082;2023-07-13T00:46:23;97069.06;;;17.88;100.00
6668;BME280;3370;47.712;9.082;2023-07-13T00:48:51;97063.66;;;17.78;100.00
6668;BME280;3370;47.712;9.082;2023-07-13T00:51:52;97057.28;;;17.82;100.00
6668;BME280;3370;47.712;9.082;2023-07-13T00:54:33;97057.53;;;17.79;100.00
6668;BME280;3370;47.712;9.082;2023-07-13T00:57:04;97054.16;;;17.90;100.00
6668;BME280;3370;47.712;9.082;2023-07-13T00:59:31;97053.84;;;17.81;100.00
6668;BME280;3370;47.712;9.082;2023-07-13T01:01:59;97064.94;;;17.72;100.00
6668;BME280;3370;47.712;9.082;2023-07-13T01:04:26;97059.53;;;17.75;100.00
6668;BME280;3370;47.712;9.082;2023-07-13T01:06:53;97055.16;;;17.76;100.00
6668;BME280;3370;47.712;9.082;2023-07-13T01:09:20;97057.53;;;17.79;100.00
6668;BME280;3370;47.712;9.082;2023-07-13T01:11:47;97058.66;;;17.88;100.00
6668;BME280;3370;47.712;9.082;2023-07-13T01:14:14;97067.38;;;17.87;100.00
6668;BME280;3370;47.712;9.082;2023-07-13T01:16:42;97069.25;;;17.85;100.00
6668;BME280;3370;47.712;9.082;2023-07-13T01:19:39;97070.09;;;17.85;100.00
6668;BME280;3370;47.712;9.082;2023-07-13T01:22:16;97067.78;;;17.93;100.00
6668;BME280;3370;47.712;9.082;2023-07-13T01:24:46;97073.78;;;17.94;100.00
6668;BME280;3370;47.712;9.082;2023-07-13T01:27:15;97079.94;;;17.93;100.00
6668;BME280;3370;47.712;9.082;2023-07-13T01:29:44;97076.28;;;17.95;100.00
6668;BME280;3370;47.712;9.082;2023-07-13T01:32:16;97081.38;;;17.97;100.00
6668;BME280;3370;47.712;9.082;2023-07-13T01:34:48;97073.56;;;17.97;100.00
6668;BME280;3370;47.712;9.082;2023-07-13T01:37:14;97076.19;;;17.97;100.00
6668;BME280;3370;47.712;9.082;2023-07-13T01:39:40;97070.84;;;17.98;100.00
6668;BME280;3370;47.712;9.082;2023-07-13T01:42:06;97069.19;;;17.97;100.00
6668;BME280;3370;47.712;9.082;2023-07-13T01:44:32;97060.47;;;17.98;100.00
6668;BME280;3370;47.712;9.082;2023-07-13T01:46:58;97053.69;;;17.96;100.00
6668;BME280;3370;47.712;9.082;2023-07-13T01:49:24;97047.56;;;17.97;100.00
6668;BME280;3370;47.712;9.082;2023-07-13T01:51:50;97043.28;;;17.96;100.00
6668;BME280;3370;47.712;9.082;2023-07-13T01:54:15;97045.19;;;17.94;100.00
6668;BME280;3370;47.712;9.082;2023-07-13T01:56:41;97045.66;;;17.99;100.00
6668;BME280;3370;47.712;9.082;2023-07-13T01:59:08;97039.25;;;17.92;100.00
6668;BME280;3370;47.712;9.082;2023-07-13T02:01:34;97041.97;;;17.90;100.00
6668;BME280;3370;47.712;9.082;2023-07-13T02:04:00;97048.97;;;17.90;100.00
6668;BME280;3370;47.712;9.082;2023-07-13T02:06:26;97044.91;;;17.86;100.00
6668;BME280;3370;47.712;9.082;2023-07-13T02:08:52;97043.44;;;17.81;100.00
6668;BME280;3370;47.712;9.082;2023-07-13T02:11:17;97044.53;;;17.79;100.00
6668;BME280;3370;47.712;9.082;2023-07-13T02:13:43;97041.09;;;17.78;100.00
6668;BME280;3370;47.712;9.082;2023-07-13T02:16:09;97047.00;;;17.80;100.00
6668;BME280;3370;47.712;9.082;2023-07-13T02:18:35;97054.69;;;17.82;100.00
6668;BME280;3370;47.712;9.082;2023-07-13T02:21:01;97053.16;;;17.79;100.00
6668;BME280;3370;47.712;9.082;2023-07-13T02:23:27;97060.03;;;17.80;100.00
6668;BME280;3370;47.712;9.082;2023-07-13T02:25:58;97059.06;;;17.81;100.00
6668;BME280;3370;47.712;9.082;2023-07-13T02:28:24;97058.34;;;17.79;100.00
6668;BME280;3370;47.712;9.082;2023-07-13T02:30:50;97058.47;;;17.78;100.00
6668;BME280;3370;47.712;9.082;2023-07-13T02:33:15;97060.03;;;17.80;100.00
6668;BME280;3370;47.712;9.082;2023-07-13T02:35:41;97065.31;;;17.79;100.00
6668;BME280;3370;47.712;9.082;2023-07-13T02:38:07;97073.03;;;17.80;100.00
6668;BME280;3370;47.712;9.082;2023-07-13T02:40:34;97074.44;;;17.85;100.00
6668;BME280;3370;47.712;9.082;2023-07-13T02:43:01;97072.47;;;17.88;100.00
6668;BME280;3370;47.712;9.082;2023-07-13T02:45:28;97071.91;;;17.96;100.00
6668;BME280;3370;47.712;9.082;2023-07-13T02:47:54;97071.19;;;17.94;100.00
6668;BME280;3370;47.712;9.082;2023-07-13T02:50:20;97075.81;;;18.01;100.00
6668;BME280;3370;47.712;9.082;2023-07-13T02:52:46;97071.06;;;17.95;100.00
6668;BME280;3370;47.712;9.082;2023-07-13T02:55:12;97072.72;;;17.96;100.00
6668;BME280;3370;47.712;9.082;2023-07-13T02:57:37;97066.91;;;17.93;100.00
6668;BME280;3370;47.712;9.082;2023-07-13T03:00:04;97061.50;;;17.96;100.00
6668;BME280;3370;47.712;9.082;2023-07-13T03:02:34;97061.50;;;17.96;100.00
6668;BME280;3370;47.712;9.082;2023-07-13T03:05:00;97062.19;;;17.98;100.00
6668;BME280;3370;47.712;9.082;2023-07-13T03:07:26;97063.38;;;17.94;100.00
6668;BME280;3370;47.712;9.082;2023-07-13T03:09:56;97065.28;;;17.92;100.00
6668;BME280;3370;47.712;9.082;2023-07-13T03:12:23;97070.69;;;17.89;100.00
6668;BME280;3370;47.712;9.082;2023-07-13T03:14:49;97074.00;;;17.91;100.00
6668;BME280;3370;47.712;9.082;2023-07-13T03:17:15;97072.13;;;17.93;100.00
6668;BME280;3370;47.712;9.082;2023-07-13T03:19:42;97071.78;;;17.86;100.00
6668;BME280;3370;47.712;9.082;2023-07-13T03:22:07;97072.78;;;17.83;100.00
6668;BME280;3370;47.712;9.082;2023-07-13T03:24:34;97065.66;;;17.98;100.00
6668;BME280;3370;47.712;9.082;2023-07-13T03:27:04;97063.16;;;17.97;100.00
6668;BME280;3370;47.712;9.082;2023-07-13T03:29:30;97073.56;;;17.97;100.00
6668;BME280;3370;47.712;9.082;2023-07-13T03:31:55;97067.38;;;17.87;100.00
6668;BME280;3370;47.712;9.082;2023-07-13T03:34:21;97079.22;;;17.91;100.00
6668;BME280;3370;47.712;9.082;2023-07-13T03:36:47;97077.97;;;17.83;100.00
6668;BME280;3370;47.712;9.082;2023-07-13T03:39:13;97079.03;;;17.81;100.00
6668;BME280;3370;47.712;9.082;2023-07-13T03:41:38;97082.34;;;17.83;100.00
6668;BME280;3370;47.712;9.082;2023-07-13T03:44:05;97085.00;;;17.94;100.00
6668;BME280;3370;47.712;9.082;2023-07-13T03:46:31;97086.09;;;17.92;100.00
6668;BME280;3370;47.712;9.082;2023-07-13T03:48:59;97087.00;;;17.91;100.00
6668;BME280;3370;47.712;9.082;2023-07-13T03:51:25;97082.88;;;17.88;100.00
6668;BME280;3370;47.712;9.082;2023-07-13T03:53:50;97088.09;;;17.88;100.00
6668;BME280;3370;47.712;9.082;2023-07-13T03:56:18;97080.88;;;17.92;100.00
6668;BME280;3370;47.712;9.082;2023-07-13T03:58:47;97082.53;;;17.93;100.00
6668;BME280;3370;47.712;9.082;2023-07-13T04:01:14;97093.53;;;17.96;100.00
6668;BME280;3370;47.712;9.082;2023-07-13T04:03:41;97089.41;;;17.94;100.00
6668;BME280;3370;47.712;9.082;2023-07-13T04:06:14;97087.50;;;17.96;100.00
6668;BME280;3370;47.712;9.082;2023-07-13T04:08:41;97083.13;;;17.96;100.00
6668;BME280;3370;47.712;9.082;2023-07-13T04:11:07;97090.72;;;17.99;100.00
6668;BME280;3370;47.712;9.082;2023-07-13T04:13:33;97097.69;;;17.99;100.00
6668;BME280;3370;47.712;9.082;2023-07-13T04:15:58;97091.09;;;18.06;100.00
6668;BME280;3370;47.712;9.082;2023-07-13T04:18:24;97094.13;;;18.00;100.00
6668;BME280;3370;47.712;9.082;2023-07-13T04:20:51;97095.81;;;18.01;100.00
6668;BME280;3370;47.712;9.082;2023-07-13T04:23:17;97095.81;;;18.01;100.00
6668;BME280;3370;47.712;9.082;2023-07-13T04:25:47;97100.78;;;18.04;100.00
6668;BME280;3370;47.712;9.082;2023-07-13T04:28:22;97105.53;;;18.10;100.00
6668;BME280;3370;47.712;9.082;2023-07-13T04:30:49;97103.88;;;18.09;100.00
6668;BME280;3370;47.712;9.082;2023-07-13T04:33:15;97115.94;;;18.10;100.00
6668;BME280;3370;47.712;9.082;2023-07-13T04:35:43;97108.13;;;18.10;100.00
6668;BME280;3370;47.712;9.082;2023-07-13T04:38:12;97103.41;;;18.15;100.00
6668;BME280;3370;47.712;9.082;2023-07-13T04:40:38;97114.41;;;18.19;100.00
6668;BME280;3370;47.712;9.082;2023-07-13T04:43:04;97123.53;;;18.25;100.00
6668;BME280;3370;47.712;9.082;2023-07-13T04:45:29;97126.75;;;18.28;100.00
6668;BME280;3370;47.712;9.082;2023-07-13T04:47:57;97133.25;;;18.23;100.00
6668;BME280;3370;47.712;9.082;2023-07-13T04:50:22;97136.41;;;18.15;100.00
6668;BME280;3370;47.712;9.082;2023-07-13T04:52:50;97130.38;;;18.14;100.00
6668;BME280;3370;47.712;9.082;2023-07-13T04:55:18;97122.56;;;18.14;100.00
6668;BME280;3370;47.712;9.082;2023-07-13T04:57:44;97124.84;;;18.19;100.00
6668;BME280;3370;47.712;9.082;2023-07-13T05:00:11;97127.94;;;18.24;100.00
6668;BME280;3370;47.712;9.082;2023-07-13T05:02:39;97129.69;;;18.24;100.00
6668;BME280;3370;47.712;9.082;2023-07-13T05:05:06;97135.63;;;18.26;100.00
6668;BME280;3370;47.712;9.082;2023-07-13T05:07:32;97136.34;;;18.28;100.00
6668;BME280;3370;47.712;9.082;2023-07-13T05:09:59;97142.25;;;18.30;100.00
6668;BME280;3370;47.712;9.082;2023-07-13T05:12:26;97134.94;;;18.35;100.00
6668;BME280;3370;47.712;9.082;2023-07-13T05:14:52;97138.25;;;18.37;100.00
6668;BME280;3370;47.712;9.082;2023-07-13T05:17:18;97142.25;;;18.41;100.00
6668;BME280;3370;47.712;9.082;2023-07-13T05:19:44;97142.97;;;18.43;100.00
6668;BME280;3370;47.712;9.082;2023-07-13T05:22:10;97148.88;;;18.45;100.00
6668;BME280;3370;47.712;9.082;2023-07-13T05:24:36;97154.00;;;18.47;100.00
6668;BME280;3370;47.712;9.082;2023-07-13T05:27:02;97165.13;;;18.49;100.00
6668;BME280;3370;47.712;9.082;2023-07-13T05:29:27;97165.00;;;18.50;100.00
6668;BME280;3370;47.712;9.082;2023-07-13T05:31:54;97164.06;;;18.51;100.00
6668;BME280;3370;47.712;9.082;2023-07-13T05:34:20;97164.56;;;18.56;100.00
6668;BME280;3370;47.712;9.082;2023-07-13T05:36:46;97164.56;;;18.56;100.00
6668;BME280;3370;47.712;9.082;2023-07-13T05:39:12;97163.97;;;18.53;100.00
6668;BME280;3370;47.712;9.082;2023-07-13T05:41:38;97165.50;;;18.55;100.00
6668;BME280;3370;47.712;9.082;2023-07-13T05:44:03;97171.41;;;18.57;100.00
6668;BME280;3370;47.712;9.082;2023-07-13T05:46:29;97169.75;;;18.56;100.00
6668;BME280;3370;47.712;9.082;2023-07-13T05:48:56;97174.72;;;18.59;100.00
6668;BME280;3370;47.712;9.082;2023-07-13T05:51:22;97174.50;;;18.63;100.00
6668;BME280;3370;47.712;9.082;2023-07-13T05:53:47;97181.13;;;18.67;100.00
6668;BME280;3370;47.712;9.082;2023-07-13T05:56:13;97183.50;;;18.70;100.00
6668;BME280;3370;47.712;9.082;2023-07-13T05:58:39;97180.91;;;18.70;100.00
6668;BME280;3370;47.712;9.082;2023-07-13T06:01:10;97179.47;;;18.66;100.00
6668;BME280;3370;47.712;9.082;2023-07-13T06:03:36;97175.91;;;18.67;100.00
6668;BME280;3370;47.712;9.082;2023-07-13T06:06:05;97180.91;;;18.70;100.00
6668;BME280;3370;47.712;9.082;2023-07-13T06:08:32;97178.41;;;18.68;100.00
6668;BME280;3370;47.712;9.082;2023-07-13T06:11:18;97183.72;;;18.55;100.00
6668;BME280;3370;47.712;9.082;2023-07-13T06:13:44;97188.00;;;18.56;100.00
6668;BME280;3370;47.712;9.082;2023-07-13T06:16:11;97192.94;;;18.48;100.00
6668;BME280;3370;47.712;9.082;2023-07-13T06:18:38;97194.81;;;18.46;100.00
6668;BME280;3370;47.712;9.082;2023-07-13T06:21:10;97199.22;;;18.46;100.00
6668;BME280;3370;47.712;9.082;2023-07-13T06:23:37;97210.94;;;18.51;100.00
6668;BME280;3370;47.712;9.082;2023-07-13T06:26:04;97209.03;;;18.42;100.00
6668;BME280;3370;47.712;9.082;2023-07-13T06:28:30;97217.75;;;18.41;100.00
6668;BME280;3370;47.712;9.082;2023-07-13T06:30:58;97223.56;;;18.45;100.00
6668;BME280;3370;47.712;9.082;2023-07-13T06:33:25;97224.41;;;18.45;100.00
6668;BME280;3370;47.712;9.082;2023-07-13T06:35:51;97228.41;;;18.38;100.00
6668;BME280;3370;47.712;9.082;2023-07-13T06:38:17;97228.97;;;18.30;100.00
6668;BME280;3370;47.712;9.082;2023-07-13T06:40:43;97231.69;;;18.29;100.00
6668;BME280;3370;47.712;9.082;2023-07-13T06:43:08;97233.69;;;18.25;100.00
6668;BME280;3370;47.712;9.082;2023-07-13T06:45:44;97231.19;;;18.24;100.00
6668;BME280;3370;47.712;9.082;2023-07-13T06:48:16;97235.56;;;18.23;100.00
6668;BME280;3370;47.712;9.082;2023-07-13T06:50:42;97233.78;;;18.24;100.00
6668;BME280;3370;47.712;9.082;2023-07-13T06:53:13;97242.19;;;18.27;100.00
6668;BME280;3370;47.712;9.082;2023-07-13T06:55:39;97246.88;;;18.35;100.00
6668;BME280;3370;47.712;9.082;2023-07-13T06:58:05;97243.09;;;18.39;100.00
6668;BME280;3370;47.712;9.082;2023-07-13T07:00:31;97250.19;;;18.37;100.00
6668;BME280;3370;47.712;9.082;2023-07-13T07:02:57;97251.59;;;18.41;100.00
6668;BME280;3370;47.712;9.082;2023-07-13T07:05:23;97249.59;;;18.45;100.00
6668;BME280;3370;47.712;9.082;2023-07-13T07:07:54;97244.91;;;18.50;100.00
6668;BME280;3370;47.712;9.082;2023-07-13T07:10:20;97251.03;;;18.49;100.00
6668;BME280;3370;47.712;9.082;2023-07-13T07:12:46;97261.91;;;18.43;100.00
6668;BME280;3370;47.712;9.082;2023-07-13T07:15:13;97264.00;;;18.37;100.00
6668;BME280;3370;47.712;9.082;2023-07-13T07:17:39;97261.97;;;18.30;100.00
6668;BME280;3370;47.712;9.082;2023-07-13T07:20:06;97263.88;;;18.28;100.00
6668;BME280;3370;47.712;9.082;2023-07-13T07:22:32;97266.69;;;18.25;100.00
6668;BME280;3370;47.712;9.082;2023-07-13T07:24:58;97261.44;;;18.13;99.36
6668;BME280;3370;47.712;9.082;2023-07-13T07:27:24;97270.72;;;18.05;100.00
6668;BME280;3370;47.712;9.082;2023-07-13T07:29:50;97272.78;;;17.88;100.00
6668;BME280;3370;47.712;9.082;2023-07-13T07:32:16;97273.84;;;17.60;100.00
6668;BME280;3370;47.712;9.082;2023-07-13T07:34:42;97273.56;;;17.52;100.00
6668;BME280;3370;47.712;9.082;2023-07-13T07:37:13;97274.50;;;17.51;100.00
6668;BME280;3370;47.712;9.082;2023-07-13T07:39:39;97276.28;;;17.37;100.00
6668;BME280;3370;47.712;9.082;2023-07-13T07:42:05;97280.63;;;17.50;100.00
6668;BME280;3370;47.712;9.082;2023-07-13T07:44:32;97275.94;;;17.55;100.00
6668;BME280;3370;47.712;9.082;2023-07-13T07:46:58;97278.66;;;17.53;100.00
6668;BME280;3370;47.712;9.082;2023-07-13T07:49:24;97286.13;;;17.58;100.00
6668;BME280;3370;47.712;9.082;2023-07-13T07:51:50;97293.22;;;17.43;100.00
6668;BME280;3370;47.712;9.082;2023-07-13T07:54:16;97295.19;;;17.39;100.00
6668;BME280;3370;47.712;9.082;2023-07-13T07:56:42;97296.13;;;17.38;100.00
6668;BME280;3370;47.712;9.082;2023-07-13T07:59:08;97297.59;;;17.42;100.00
6668;BME280;3370;47.712;9.082;2023-07-13T08:01:35;97303.81;;;17.53;100.00
6668;BME280;3370;47.712;9.082;2023-07-13T08:04:01;97303.41;;;17.59;100.00
6668;BME280;3370;47.712;9.082;2023-07-13T08:06:27;97297.56;;;17.68;100.00
6668;BME280;3370;47.712;9.082;2023-07-13T08:08:53;97294.19;;;17.79;100.00
6668;BME280;3370;47.712;9.082;2023-07-13T08:11:21;97296.06;;;17.90;100.00
6668;BME280;3370;47.712;9.082;2023-07-13T08:13:46;97294.34;;;18.01;100.00
6668;BME280;3370;47.712;9.082;2023-07-13T08:16:12;97295.28;;;18.13;100.00
6668;BME280;3370;47.712;9.082;2023-07-13T08:18:38;97293.44;;;18.27;100.00
6668;BME280;3370;47.712;9.082;2023-07-13T08:21:06;97288.72;;;18.32;100.00
6668;BME280;3370;47.712;9.082;2023-07-13T08:23:33;97302.75;;;18.42;100.00
6668;BME280;3370;47.712;9.082;2023-07-13T08:25:58;97292.69;;;18.49;100.00
6668;BME280;3370;47.712;9.082;2023-07-13T08:28:27;97299.91;;;18.45;99.76
6668;BME280;3370;47.712;9.082;2023-07-13T08:30:53;97292.88;;;18.58;100.00
6668;BME280;3370;47.712;9.082;2023-07-13T08:33:21;97290.50;;;18.67;100.00
6668;BME280;3370;47.712;9.082;2023-07-13T08:35:49;97294.44;;;18.72;97.13
6668;BME280;3370;47.712;9.082;2023-07-13T08:38:17;97305.44;;;18.76;94.84
6668;BME280;3370;47.712;9.082;2023-07-13T08:40:43;97304.69;;;18.87;93.68
6668;BME280;3370;47.712;9.082;2023-07-13T08:43:16;97297.97;;;18.36;92.73
6668;BME280;3370;47.712;9.082;2023-07-13T08:46:16;97291.16;;;18.46;92.61
6668;BME280;3370;47.712;9.082;2023-07-13T08:48:53;97295.19;;;18.50;94.35
6668;BME280;3370;47.712;9.082;2023-07-13T08:54:02;97288.28;;;18.73;95.48
6668;BME280;3370;47.712;9.082;2023-07-13T08:56:31;97288.13;;;18.88;95.21
6668;BME280;3370;47.712;9.082;2023-07-13T08:59:18;97285.19;;;19.04;90.73
6668;BME280;3370;47.712;9.082;2023-07-13T09:07:53;97289.66;;;18.90;85.83
6668;BME280;3370;47.712;9.082;2023-07-13T09:13:37;97302.47;;;19.05;85.81
6668;BME280;3370;47.712;9.082;2023-07-13T09:16:03;97297.72;;;18.87;85.10
6668;BME280;3370;47.712;9.082;2023-07-13T09:18:50;97301.28;;;18.98;87.86
6668;BME280;3370;47.712;9.082;2023-07-13T09:21:20;97290.41;;;19.15;88.83
6668;BME280;3370;47.712;9.082;2023-07-13T09:23:48;97293.50;;;19.20;85.30
6668;BME280;3370;47.712;9.082;2023-07-13T09:26:20;97304.44;;;19.25;81.78
6668;BME280;3370;47.712;9.082;2023-07-13T09:29:11;97301.81;;;19.37;81.20
6668;BME280;3370;47.712;9.082;2023-07-13T09:31:49;97301.31;;;19.54;84.64
6668;BME280;3370;47.712;9.082;2023-07-13T09:34:17;97293.31;;;19.80;80.95
6668;BME280;3370;47.712;9.082;2023-07-13T09:36:43;97294.53;;;20.08;80.57
6668;BME280;3370;47.712;9.082;2023-07-13T09:42:18;97283.81;;;20.55;82.32
6668;BME280;3370;47.712;9.082;2023-07-13T09:44:58;97291.19;;;20.61;82.49
6668;BME280;3370;47.712;9.082;2023-07-13T09:47:28;97291.19;;;20.61;81.80
6668;BME280;3370;47.712;9.082;2023-07-13T09:50:14;97299.94;;;20.60;79.60
6668;BME280;3370;47.712;9.082;2023-07-13T09:52:47;97304.25;;;20.61;82.24
6668;BME280;3370;47.712;9.082;2023-07-13T09:55:36;97298.22;;;20.81;81.45
6668;BME280;3370;47.712;9.082;2023-07-13T09:58:26;97300.63;;;20.73;70.85
6668;BME280;3370;47.712;9.082;2023-07-13T10:01:02;97303.75;;;20.56;75.18
6668;BME280;3370;47.712;9.082;2023-07-13T10:03:32;97305.06;;;20.50;75.49
6668;BME280;3370;47.712;9.082;2023-07-13T10:06:18;97307.50;;;20.42;72.47
6668;BME280;3370;47.712;9.082;2023-07-13T10:08:49;97312.03;;;19.96;71.21
6668;BME280;3370;47.712;9.082;2023-07-13T10:11:27;97299.16;;;20.04;77.50
6668;BME280;3370;47.712;9.082;2023-07-13T10:14:02;97301.94;;;20.35;78.95
6668;BME280;3370;47.712;9.082;2023-07-13T10:16:34;97302.34;;;20.52;77.04
6668;BME280;3370;47.712;9.082;2023-07-13T10:19:32;97299.78;;;20.40;69.66
6668;BME280;3370;47.712;9.082;2023-07-13T10:22:10;97306.81;;;20.28;71.80
6668;BME280;3370;47.712;9.082;2023-07-13T10:24:39;97293.09;;;20.47;72.54
6668;BME280;3370;47.712;9.082;2023-07-13T10:27:19;97302.41;;;20.73;73.10
6668;BME280;3370;47.712;9.082;2023-07-13T10:32:14;97298.44;;;21.20;74.16
6668;BME280;3370;47.712;9.082;2023-07-13T10:34:44;97295.00;;;20.99;69.48
6668;BME280;3370;47.712;9.082;2023-07-13T10:37:35;97290.06;;;20.75;72.58
6668;BME280;3370;47.712;9.082;2023-07-13T10:40:06;97293.41;;;21.08;73.89
6668;BME280;3370;47.712;9.082;2023-07-13T10:42:41;97294.94;;;21.41;73.32
6668;BME280;3370;47.712;9.082;2023-07-13T10:45:19;97303.03;;;21.59;69.03
6668;BME280;3370;47.712;9.082;2023-07-13T10:47:47;97291.38;;;21.42;66.99
6668;BME280;3370;47.712;9.082;2023-07-13T10:50:19;97299.25;;;21.42;68.49
6668;BME280;3370;47.712;9.082;2023-07-13T10:52:55;97301.03;;;21.72;67.58
6668;BME280;3370;47.712;9.082;2023-07-13T10:58:31;97302.97;;;21.70;64.02
6668;BME280;3370;47.712;9.082;2023-07-13T11:01:14;97301.84;;;21.42;64.79
6668;BME280;3370;47.712;9.082;2023-07-13T11:09:34;97295.88;;;22.11;67.37
6668;BME280;3370;47.712;9.082;2023-07-13T11:18:12;97295.19;;;21.99;64.60
6668;BME280;3370;47.712;9.082;2023-07-13T11:20:39;97291.13;;;22.36;64.79
6668;BME280;3370;47.712;9.082;2023-07-13T11:23:26;97287.94;;;22.71;65.85
6668;BME280;3370;47.712;9.082;2023-07-13T11:25:53;97283.09;;;22.96;63.73
6668;BME280;3370;47.712;9.082;2023-07-13T11:28:24;97288.34;;;23.15;58.82
6668;BME280;3370;47.712;9.082;2023-07-13T11:33:25;97293.13;;;23.30;59.72
6668;BME280;3370;47.712;9.082;2023-07-13T11:43:44;97287.88;;;23.30;58.64
6668;BME280;3370;47.712;9.082;2023-07-13T11:46:24;97280.34;;;22.88;58.26
6668;BME280;3370;47.712;9.082;2023-07-13T11:48:51;97283.13;;;22.76;58.65
6668;BME280;3370;47.712;9.082;2023-07-13T11:51:22;97278.13;;;23.03;62.83
6668;BME280;3370;47.712;9.082;2023-07-13T11:53:51;97277.59;;;23.46;63.43
6668;BME280;3370;47.712;9.082;2023-07-13T11:56:17;97273.09;;;23.57;62.72
6668;BME280;3370;47.712;9.082;2023-07-13T11:58:44;97266.03;;;23.95;60.46
6668;BME280;3370;47.712;9.082;2023-07-13T12:01:28;97265.47;;;23.35;58.30
6668;BME280;3370;47.712;9.082;2023-07-13T12:04:00;97260.38;;;22.38;60.17
6668;BME280;3370;47.712;9.082;2023-07-13T12:06:34;97258.31;;;22.51;62.27
6668;BME280;3370;47.712;9.082;2023-07-13T12:09:12;97254.44;;;23.60;62.85
6668;BME280;3370;47.712;9.082;2023-07-13T12:11:41;97258.03;;;24.14;59.20
6668;BME280;3370;47.712;9.082;2023-07-13T12:14:18;97263.38;;;24.40;56.72
6668;BME280;3370;47.712;9.082;2023-07-13T12:16:46;97258.44;;;24.55;55.64
6668;BME280;3370;47.712;9.082;2023-07-13T12:19:25;97252.03;;;25.02;56.76
6668;BME280;3370;47.712;9.082;2023-07-13T12:21:56;97259.28;;;25.34;56.22
6668;BME280;3370;47.712;9.082;2023-07-13T12:24:23;97263.53;;;24.75;56.89
6668;BME280;3370;47.712;9.082;2023-07-13T12:27:04;97257.75;;;24.97;57.82
6668;BME280;3370;47.712;9.082;2023-07-13T12:29:32;97258.22;;;25.19;54.23
6668;BME280;3370;47.712;9.082;2023-07-13T12:31:59;97253.25;;;25.85;56.97
6668;BME280;3370;47.712;9.082;2023-07-13T12:34:26;97249.91;;;26.42;55.10
6668;BME280;3370;47.712;9.082;2023-07-13T12:37:01;97246.28;;;26.43;53.30
6668;BME280;3370;47.712;9.082;2023-07-13T12:39:47;97243.16;;;26.14;54.93
6668;BME280;3370;47.712;9.082;2023-07-13T12:42:28;97238.91;;;26.71;53.44
6668;BME280;3370;47.712;9.082;2023-07-13T12:45:25;97239.66;;;27.04;50.17
6668;BME280;3370;47.712;9.082;2023-07-13T12:48:15;97234.06;;;27.63;51.90
6668;BME280;3370;47.712;9.082;2023-07-13T12:50:46;97234.72;;;27.97;50.47
6668;BME280;3370;47.712;9.082;2023-07-13T12:53:17;97244.94;;;27.68;51.37
6668;BME280;3370;47.712;9.082;2023-07-13T12:55:54;97241.03;;;26.75;51.14
6668;BME280;3370;47.712;9.082;2023-07-13T12:58:40;97235.03;;;27.14;53.70
6668;BME280;3370;47.712;9.082;2023-07-13T13:01:13;97242.22;;;27.85;51.28
6668;BME280;3370;47.712;9.082;2023-07-13T13:03:45;97240.97;;;28.27;50.33
6668;BME280;3370;47.712;9.082;2023-07-13T13:08:57;97238.75;;;29.15;45.69
6668;BME280;3370;47.712;9.082;2023-07-13T13:11:31;97235.13;;;28.78;48.16
6668;BME280;3370;47.712;9.082;2023-07-13T13:13:58;97231.44;;;28.64;47.37
6668;BME280;3370;47.712;9.082;2023-07-13T13:16:37;97224.84;;;28.14;50.00
6668;BME280;3370;47.712;9.082;2023-07-13T13:19:19;97225.13;;;28.27;47.37
6668;BME280;3370;47.712;9.082;2023-07-13T13:21:47;97237.13;;;28.76;47.29
6668;BME280;3370;47.712;9.082;2023-07-13T13:24:16;97223.31;;;28.42;46.40
6668;BME280;3370;47.712;9.082;2023-07-13T13:26:43;97224.13;;;27.65;48.00
6668;BME280;3370;47.712;9.082;2023-07-13T13:29:21;97221.28;;;28.06;48.63
6668;BME280;3370;47.712;9.082;2023-07-13T13:31:50;97216.41;;;28.18;48.05
6668;BME280;3370;47.712;9.082;2023-07-13T13:34:18;97225.06;;;28.73;47.82
6668;BME280;3370;47.712;9.082;2023-07-13T13:36:45;97210.66;;;28.15;46.25
6668;BME280;3370;47.712;9.082;2023-07-13T13:39:32;97212.31;;;27.53;52.03
6668;BME280;3370;47.712;9.082;2023-07-13T13:41:59;97209.56;;;27.78;50.10
6668;BME280;3370;47.712;9.082;2023-07-13T13:44:25;97213.81;;;28.33;50.85
6668;BME280;3370;47.712;9.082;2023-07-13T13:46:53;97201.75;;;29.06;47.37
6668;BME280;3370;47.712;9.082;2023-07-13T13:49:25;97200.38;;;29.55;46.30
6668;BME280;3370;47.712;9.082;2023-07-13T13:51:53;97204.97;;;28.64;45.81
6668;BME280;3370;47.712;9.082;2023-07-13T13:54:21;97195.56;;;29.29;46.94
6668;BME280;3370;47.712;9.082;2023-07-13T13:56:50;97188.03;;;29.62;45.43
6668;BME280;3370;47.712;9.082;2023-07-13T13:59:16;97184.56;;;29.47;45.45
6668;BME280;3370;47.712;9.082;2023-07-13T14:01:44;97192.72;;;29.97;45.87
6668;BME280;3370;47.712;9.082;2023-07-13T14:04:19;97185.97;;;30.37;43.49
6668;BME280;3370;47.712;9.082;2023-07-13T14:06:46;97185.53;;;30.34;44.50
6668;BME280;3370;47.712;9.082;2023-07-13T14:09:16;97184.28;;;30.58;43.09
6668;BME280;3370;47.712;9.082;2023-07-13T14:11:44;97178.84;;;30.66;42.05
6668;BME280;3370;47.712;9.082;2023-07-13T14:14:31;97186.19;;;29.78;41.58